createdAt,value
2018-12-12T06:28:47.309Z,1020.25
2018-12-12T06:29:47.281Z,1020.25
2018-12-12T06:30:47.270Z,1020.28
2018-12-12T06:31:47.279Z,1020.29
2018-12-12T06:32:47.249Z,1020.31
2018-12-12T06:33:47.238Z,1020.24
2018-12-12T06:34:47.233Z,1020.24
2018-12-12T06:35:47.227Z,1020.21
2018-12-12T06:36:47.264Z,1020.19
2018-12-12T06:37:47.194Z,1020.23
2018-12-12T06:38:47.198Z,1020.24
2018-12-12T06:39:47.189Z,1020.25
2018-12-12T06:40:47.165Z,1020.26
2018-12-12T06:41:47.173Z,1020.22
2018-12-12T06:42:47.145Z,1020.32
2018-12-12T06:43:47.132Z,1020.32
2018-12-12T06:44:47.137Z,1020.36
2018-12-12T06:45:47.116Z,1020.38
2018-12-12T06:46:47.128Z,1020.40
2018-12-12T06:47:47.092Z,1020.34
2018-12-12T06:48:47.080Z,1020.41
2018-12-12T06:49:47.082Z,1020.37
2018-12-12T06:50:47.065Z,1020.38
2018-12-12T06:51:47.066Z,1020.38
2018-12-12T06:52:47.039Z,1020.38
2018-12-12T06:53:47.031Z,1020.40
2018-12-12T06:54:47.016Z,1020.40
2018-12-12T06:55:47.007Z,1020.41
2018-12-12T06:56:47.014Z,1020.39
2018-12-12T06:57:47.001Z,1020.37
2018-12-12T06:58:46.984Z,1020.43
2018-12-12T06:59:46.966Z,1020.45
2018-12-12T07:00:46.953Z,1020.44
2018-12-12T07:01:46.966Z,1020.46
2018-12-12T07:02:46.942Z,1020.48
2018-12-12T07:03:46.929Z,1020.48
2018-12-12T07:04:46.910Z,1020.48
2018-12-12T07:05:46.904Z,1020.50
2018-12-12T07:06:53.974Z,1020.51
2018-12-12T07:07:46.880Z,1020.49
2018-12-12T07:08:46.868Z,1020.51
2018-12-12T07:09:46.858Z,1020.44
2018-12-12T07:10:46.848Z,1020.50
2018-12-12T07:11:46.854Z,1020.52
2018-12-12T07:12:46.826Z,1020.49
2018-12-12T07:13:46.820Z,1020.48
2018-12-12T07:14:46.884Z,1020.52
2018-12-12T07:15:46.798Z,1020.48
2018-12-12T07:16:46.817Z,1020.48
2018-12-12T07:17:46.776Z,1020.45
2018-12-12T07:18:46.775Z,1020.46
2018-12-12T07:19:46.755Z,1020.48
2018-12-12T07:20:46.744Z,1020.47
2018-12-12T07:21:46.798Z,1020.48
2018-12-12T07:22:46.724Z,1020.46
2018-12-12T07:23:46.711Z,1020.44
2018-12-12T07:24:46.707Z,1020.45
2018-12-12T07:25:46.692Z,1020.45
2018-12-12T07:26:46.737Z,1020.47
2018-12-12T07:27:46.690Z,1020.43
2018-12-12T07:28:46.663Z,1020.45
2018-12-12T07:29:46.695Z,1020.50
2018-12-12T07:30:46.641Z,1020.51
2018-12-12T07:31:46.652Z,1020.53
2018-12-12T07:32:46.621Z,1020.49
2018-12-12T07:33:46.610Z,1020.42
2018-12-12T07:34:46.598Z,1020.46
2018-12-12T07:35:46.644Z,1020.47
2018-12-12T07:36:46.670Z,1020.51
2018-12-12T07:37:46.566Z,1020.49
2018-12-12T07:38:46.558Z,1020.48
2018-12-12T07:39:46.545Z,1020.53
2018-12-12T07:40:46.535Z,1020.50
2018-12-12T07:41:46.550Z,1020.54
2018-12-12T07:42:46.517Z,1020.57
2018-12-12T07:43:46.517Z,1020.54
2018-12-12T07:44:46.530Z,1020.54
2018-12-12T07:45:46.488Z,1020.61
2018-12-12T07:46:46.492Z,1020.57
2018-12-12T07:47:46.499Z,1020.62
2018-12-12T07:48:46.454Z,1020.62
2018-12-12T07:49:46.448Z,1020.65
2018-12-12T07:50:46.442Z,1020.68
2018-12-12T07:51:46.471Z,1020.73
2018-12-12T07:52:46.440Z,1020.71
2018-12-12T07:53:46.400Z,1020.72
2018-12-12T07:54:46.454Z,1020.73
2018-12-12T07:55:47.174Z,1020.78
2018-12-12T07:56:46.397Z,1020.73
2018-12-12T07:57:46.359Z,1020.77
2018-12-12T07:58:46.385Z,1020.74
2018-12-12T07:59:46.355Z,1020.75
2018-12-12T08:00:46.326Z,1020.76
2018-12-12T08:01:46.341Z,1020.78
2018-12-12T08:02:46.324Z,1020.81
2018-12-12T08:03:46.292Z,1020.75
2018-12-12T08:04:46.291Z,1020.78
2018-12-12T08:05:46.278Z,1020.77
2018-12-12T08:06:46.279Z,1020.81
2018-12-12T08:07:46.262Z,1020.80
2018-12-12T08:08:46.251Z,1020.79
2018-12-12T08:09:46.231Z,1020.88
2018-12-12T08:10:46.220Z,1020.86
2018-12-12T08:11:46.230Z,1020.84
2018-12-12T08:12:46.204Z,1020.85
2018-12-12T08:13:46.188Z,1020.86
2018-12-12T08:14:46.206Z,1020.88
2018-12-12T08:15:46.165Z,1020.80
2018-12-12T08:16:46.172Z,1020.83
2018-12-12T08:17:46.145Z,1020.85
2018-12-12T08:18:46.138Z,1020.93
2018-12-12T08:19:46.127Z,1020.91
2018-12-12T08:20:46.118Z,1020.92
2018-12-12T08:21:46.135Z,1020.93
2018-12-12T08:22:46.098Z,1020.92
2018-12-12T08:23:46.084Z,1020.93
2018-12-12T08:24:46.080Z,1020.91
2018-12-12T08:25:46.063Z,1020.88
2018-12-12T08:26:46.055Z,1020.86
2018-12-12T08:27:46.074Z,1020.88
2018-12-12T08:28:46.068Z,1020.89
2018-12-12T08:29:46.023Z,1020.85
2018-12-12T08:30:46.011Z,1020.90
2018-12-12T08:31:46.007Z,1020.83
2018-12-12T08:32:46.012Z,1020.89
2018-12-12T08:33:45.998Z,1020.88
2018-12-12T08:34:45.967Z,1020.90
2018-12-12T08:35:45.954Z,1020.87
2018-12-12T08:36:45.956Z,1020.88
2018-12-12T08:37:45.955Z,1020.87
2018-12-12T08:38:45.925Z,1020.87
2018-12-12T08:39:45.913Z,1020.87
2018-12-12T08:40:45.943Z,1020.89
2018-12-12T08:41:45.895Z,1020.90
2018-12-12T08:42:45.922Z,1020.93
2018-12-12T08:43:45.896Z,1020.90
2018-12-12T08:44:45.872Z,1020.96
2018-12-12T08:45:45.851Z,1020.98
2018-12-12T08:46:45.840Z,1020.93
2018-12-12T08:47:45.848Z,1020.98
2018-12-12T08:48:45.828Z,1020.98
2018-12-12T08:49:45.809Z,1020.96
2018-12-12T08:50:45.799Z,1020.97
2018-12-12T08:51:45.789Z,1020.99
2018-12-12T08:52:45.804Z,1021.02
2018-12-12T08:53:45.766Z,1021.01
2018-12-12T08:54:45.788Z,1020.98
2018-12-12T08:55:45.778Z,1020.99
2018-12-12T08:56:45.746Z,1020.99
2018-12-12T08:57:45.750Z,1021.06
2018-12-12T08:58:45.808Z,1021.04
2018-12-12T08:59:45.701Z,1021.08
2018-12-12T09:00:45.694Z,1021.05
2018-12-12T09:01:45.682Z,1021.06
2018-12-12T09:02:45.690Z,1021.05
2018-12-12T09:03:45.661Z,1021.05
2018-12-12T09:04:45.660Z,1021.07
2018-12-12T09:05:45.641Z,1021.05
2018-12-12T09:06:45.633Z,1021.08
2018-12-12T09:07:45.646Z,1021.08
2018-12-12T09:08:45.612Z,1021.08
2018-12-12T09:09:45.661Z,1021.12
2018-12-12T09:10:45.591Z,1021.01
2018-12-12T09:11:45.577Z,1021.04
2018-12-12T09:12:45.591Z,1021.05
2018-12-12T09:13:45.557Z,1021.06
2018-12-12T09:14:45.550Z,1021.07
2018-12-12T09:15:45.542Z,1021.06
2018-12-12T09:16:45.529Z,1021.11
2018-12-12T09:17:45.535Z,1021.11
2018-12-12T09:18:45.519Z,1021.13
2018-12-12T09:19:45.497Z,1021.11
2018-12-12T09:20:45.484Z,1021.09
2018-12-12T09:21:45.483Z,1021.03
2018-12-12T09:22:45.486Z,1021.10
2018-12-12T09:23:45.454Z,1021.07
2018-12-12T09:24:45.444Z,1021.09
2018-12-12T09:25:45.432Z,1021.13
2018-12-12T09:26:45.425Z,1021.09
2018-12-12T09:27:46.373Z,1021.10
2018-12-12T09:28:45.402Z,1021.14
2018-12-12T09:29:45.390Z,1021.15
2018-12-12T09:30:45.394Z,1021.14
2018-12-12T09:31:45.372Z,1021.15
2018-12-12T09:32:45.407Z,1021.18
2018-12-12T09:33:45.363Z,1021.17
2018-12-12T09:34:45.340Z,1021.14
2018-12-12T09:35:45.332Z,1021.14
2018-12-12T09:36:45.320Z,1021.17
2018-12-12T09:37:45.343Z,1021.16
2018-12-12T09:38:45.299Z,1021.15
2018-12-12T09:39:45.288Z,1021.18
2018-12-12T09:40:45.290Z,1021.15
2018-12-12T09:41:45.267Z,1021.15
2018-12-12T09:42:45.276Z,1021.15
2018-12-12T09:43:45.259Z,1021.13
2018-12-12T09:44:45.237Z,1021.19
2018-12-12T09:45:45.229Z,1021.13
2018-12-12T09:46:45.216Z,1021.18
2018-12-12T09:47:45.244Z,1021.18
2018-12-12T09:48:45.210Z,1021.16
2018-12-12T09:49:45.185Z,1021.17
2018-12-12T09:50:45.183Z,1021.15
2018-12-12T09:51:45.167Z,1021.16
2018-12-12T09:52:45.178Z,1021.18
2018-12-12T09:53:45.149Z,1021.15
2018-12-12T09:54:45.139Z,1021.19
2018-12-12T09:55:45.121Z,1021.17
2018-12-12T09:56:45.113Z,1021.15
2018-12-12T09:57:45.121Z,1021.15
2018-12-12T09:58:45.103Z,1021.15
2018-12-12T09:59:45.084Z,1021.18
2018-12-12T10:00:45.078Z,1021.16
2018-12-12T10:01:45.065Z,1021.12
2018-12-12T10:02:45.082Z,1021.13
2018-12-12T10:03:45.041Z,1021.14
2018-12-12T10:04:45.040Z,1021.17
2018-12-12T10:05:45.019Z,1021.11
2018-12-12T10:06:45.009Z,1021.08
2018-12-12T10:07:45.142Z,1021.05
2018-12-12T10:08:44.989Z,1021.00
2018-12-12T10:09:44.982Z,1021.07
2018-12-12T10:10:44.968Z,1021.05
2018-12-12T10:11:44.973Z,1021.06
2018-12-12T10:12:45.039Z,1021.03
2018-12-12T10:13:44.939Z,1021.06
2018-12-12T10:14:44.927Z,1021.04
2018-12-12T10:15:44.918Z,1021.06
2018-12-12T10:16:44.906Z,1021.02
2018-12-12T10:17:44.898Z,1021.05
2018-12-12T10:18:44.919Z,1021.05
2018-12-12T10:19:44.877Z,1021.01
2018-12-12T10:20:44.866Z,1021.09
2018-12-12T10:21:44.860Z,1020.97
2018-12-12T10:22:44.879Z,1021.02
2018-12-12T10:23:44.855Z,1020.99
2018-12-12T10:24:44.830Z,1021.05
2018-12-12T10:25:44.816Z,1020.97
2018-12-12T10:26:44.814Z,1020.97
2018-12-12T10:27:44.826Z,1021.00
2018-12-12T10:28:44.803Z,1020.98
2018-12-12T10:29:44.794Z,1021.01
2018-12-12T10:30:44.781Z,1021.02
2018-12-12T10:31:44.755Z,1021.04
2018-12-12T10:32:44.750Z,1021.00
2018-12-12T10:33:44.756Z,1021.00
2018-12-12T10:34:44.724Z,1020.99
2018-12-12T10:35:44.725Z,1020.94
2018-12-12T10:36:44.722Z,1020.93
2018-12-12T10:37:44.693Z,1020.89
2018-12-12T10:38:44.704Z,1020.89
2018-12-12T10:39:44.684Z,1020.88
2018-12-12T10:40:44.676Z,1020.86
2018-12-12T10:41:44.652Z,1020.88
2018-12-12T10:42:44.643Z,1020.85
2018-12-12T10:43:44.654Z,1020.84
2018-12-12T10:44:44.633Z,1020.77
2018-12-12T10:45:44.615Z,1020.81
2018-12-12T10:46:44.610Z,1020.79
2018-12-12T10:47:44.593Z,1020.84
2018-12-12T10:48:44.608Z,1020.79
2018-12-12T10:49:44.572Z,1020.76
2018-12-12T10:50:44.562Z,1020.75
2018-12-12T10:51:44.561Z,1020.75
2018-12-12T10:52:44.543Z,1020.71
2018-12-12T10:53:44.554Z,1020.71
2018-12-12T10:54:44.526Z,1020.62
2018-12-12T10:55:44.523Z,1020.73
2018-12-12T10:56:44.500Z,1020.69
2018-12-12T10:57:44.490Z,1020.70
2018-12-12T10:58:44.505Z,1020.63
2018-12-12T10:59:44.473Z,1020.61
2018-12-12T11:00:44.464Z,1020.62
2018-12-12T11:01:44.450Z,1020.61
2018-12-12T11:02:44.445Z,1020.60
2018-12-12T11:03:44.607Z,1020.56
2018-12-12T11:04:44.420Z,1020.56
2018-12-12T11:05:44.408Z,1020.60
2018-12-12T11:06:44.404Z,1020.55
2018-12-12T11:07:44.386Z,1020.58
2018-12-12T11:08:44.393Z,1020.59
2018-12-12T11:09:44.366Z,1020.54
2018-12-12T11:10:44.356Z,1020.57
2018-12-12T11:11:44.356Z,1020.52
2018-12-12T11:12:44.337Z,1020.52
2018-12-12T11:13:44.346Z,1020.50
2018-12-12T11:14:44.314Z,1020.48
2018-12-12T11:15:44.303Z,1020.52
2018-12-12T11:16:44.293Z,1020.53
2018-12-12T11:17:44.286Z,1020.54
2018-12-12T11:18:44.301Z,1020.51
2018-12-12T11:19:44.265Z,1020.53
2018-12-12T11:20:44.251Z,1020.47
2018-12-12T11:21:44.242Z,1020.44
2018-12-12T11:22:44.233Z,1020.47
2018-12-12T11:23:44.239Z,1020.44
2018-12-12T11:24:45.141Z,1020.44
2018-12-12T11:25:44.197Z,1020.45
2018-12-12T11:26:44.203Z,1020.47
2018-12-12T11:27:44.178Z,1020.43
2018-12-12T11:28:44.185Z,1020.38
2018-12-12T11:29:44.160Z,1020.35
2018-12-12T11:30:44.151Z,1020.40
2018-12-12T11:31:44.136Z,1020.35
2018-12-12T11:32:44.129Z,1020.38
2018-12-12T11:33:50.311Z,1020.38
2018-12-12T11:34:45.104Z,1020.37
2018-12-12T11:35:44.093Z,1020.34
2018-12-12T11:36:44.106Z,1020.34
2018-12-12T11:37:44.084Z,1020.36
2018-12-12T11:38:44.091Z,1020.33
2018-12-12T11:39:44.051Z,1020.36
2018-12-12T11:40:44.044Z,1020.35
2018-12-12T11:41:44.052Z,1020.35
2018-12-12T11:42:44.023Z,1020.32
2018-12-12T11:43:44.030Z,1020.33
2018-12-12T11:44:43.998Z,1020.32
2018-12-12T11:45:43.989Z,1020.32
2018-12-12T11:46:43.977Z,1020.31
2018-12-12T11:47:43.977Z,1020.33
2018-12-12T11:48:43.977Z,1020.26
2018-12-12T11:49:43.951Z,1020.28
2018-12-12T11:50:43.936Z,1020.24
2018-12-12T11:51:43.928Z,1020.27
2018-12-12T11:52:43.916Z,1020.22
2018-12-12T11:53:43.904Z,1020.25
2018-12-12T11:54:43.911Z,1020.14
2018-12-12T11:55:43.912Z,1020.18
2018-12-12T11:56:43.871Z,1020.17
2018-12-12T11:57:43.874Z,1020.20
2018-12-12T11:58:43.848Z,1020.26
2018-12-12T11:59:43.860Z,1020.14
2018-12-12T12:00:43.837Z,1020.18
2018-12-12T12:01:43.824Z,1020.19
2018-12-12T12:02:43.806Z,1020.14
2018-12-12T12:03:43.797Z,1020.17
2018-12-12T12:04:43.813Z,1020.12
2018-12-12T12:05:43.778Z,1020.13
2018-12-12T12:06:43.765Z,1020.12
2018-12-12T12:07:43.757Z,1020.07
2018-12-12T12:08:43.743Z,1020.14
2018-12-12T12:09:43.749Z,1020.12
2018-12-12T12:10:43.722Z,1020.15
2018-12-12T12:11:43.709Z,1020.11
2018-12-12T12:12:43.713Z,1020.10
2018-12-12T12:13:43.697Z,1020.08
2018-12-12T12:14:43.705Z,1020.09
2018-12-12T12:15:43.669Z,1020.15
2018-12-12T12:16:43.661Z,1020.09
2018-12-12T12:17:43.645Z,1020.12
2018-12-12T12:18:43.640Z,1020.10
2018-12-12T12:19:43.649Z,1020.04
2018-12-12T12:20:43.611Z,1020.04
2018-12-12T12:21:43.610Z,1020.04
2018-12-12T12:22:43.599Z,1020.07
2018-12-12T12:23:43.584Z,1020.06
2018-12-12T12:24:43.593Z,1020.10
2018-12-12T12:25:43.571Z,1020.06
2018-12-12T12:26:43.574Z,1020.11
2018-12-12T12:27:43.542Z,1020.11
2018-12-12T12:28:43.529Z,1020.12
2018-12-12T12:29:43.553Z,1020.05
2018-12-12T12:30:43.511Z,1020.02
2018-12-12T12:31:43.518Z,1020.05
2018-12-12T12:32:43.488Z,1020.07
2018-12-12T12:33:43.481Z,1020.01
2018-12-12T12:34:43.486Z,1020.00
2018-12-12T12:35:43.474Z,1019.99
2018-12-12T12:36:43.448Z,1019.98
2018-12-12T12:37:43.440Z,1020.01
2018-12-12T12:38:43.425Z,1019.96
2018-12-12T12:39:43.433Z,1019.97
2018-12-12T12:40:43.407Z,1019.99
2018-12-12T12:41:43.393Z,1019.94
2018-12-12T12:42:43.390Z,1019.95
2018-12-12T12:43:43.391Z,1019.90
2018-12-12T12:44:43.380Z,1019.91
2018-12-12T12:45:43.352Z,1019.95
2018-12-12T12:46:43.345Z,1019.92
2018-12-12T12:47:43.331Z,1019.95
2018-12-12T12:48:43.355Z,1019.92
2018-12-12T12:49:43.326Z,1019.94
2018-12-12T12:50:44.174Z,1019.90
2018-12-12T12:51:43.286Z,1019.91
2018-12-12T12:52:43.329Z,1019.90
2018-12-12T12:53:43.266Z,1019.87
2018-12-12T12:54:43.284Z,1019.82
2018-12-12T12:55:43.257Z,1019.85
2018-12-12T12:56:43.257Z,1019.84
2018-12-12T12:57:43.230Z,1019.83
2018-12-12T12:58:43.218Z,1019.81
2018-12-12T12:59:43.219Z,1019.80
2018-12-12T13:00:43.195Z,1019.75
2018-12-12T13:01:43.181Z,1019.75
2018-12-12T13:02:43.172Z,1019.75
2018-12-12T13:03:43.159Z,1019.74
2018-12-12T13:04:43.165Z,1019.71
2018-12-12T13:05:43.145Z,1019.75
2018-12-12T13:06:43.146Z,1019.68
2018-12-12T13:07:43.122Z,1019.71
2018-12-12T13:08:43.107Z,1019.68
2018-12-12T13:09:43.136Z,1019.70
2018-12-12T13:10:43.093Z,1019.68
2018-12-12T13:11:43.076Z,1019.64
2018-12-12T13:12:43.082Z,1019.67
2018-12-12T13:13:43.182Z,1019.60
2018-12-12T13:14:43.061Z,1019.61
2018-12-12T13:15:43.035Z,1019.66
2018-12-12T13:16:43.025Z,1019.57
2018-12-12T13:17:43.022Z,1019.65
2018-12-12T13:18:43.004Z,1019.61
2018-12-12T13:19:43.017Z,1019.60
2018-12-12T13:20:42.995Z,1019.57
2018-12-12T13:21:42.973Z,1019.60
2018-12-12T13:22:43.125Z,1019.55
2018-12-12T13:23:42.951Z,1019.57
2018-12-12T13:24:42.958Z,1019.61
2018-12-12T13:25:42.936Z,1019.57
2018-12-12T13:26:42.923Z,1019.57
2018-12-12T13:27:43.117Z,1019.50
2018-12-12T13:28:42.907Z,1019.52
2018-12-12T13:29:42.915Z,1019.48
2018-12-12T13:30:42.880Z,1019.49
2018-12-12T13:31:42.901Z,1019.46
2018-12-12T13:32:42.874Z,1019.52
2018-12-12T13:33:42.852Z,1019.52
2018-12-12T13:34:42.855Z,1019.47
2018-12-12T13:35:42.826Z,1019.48
2018-12-12T13:36:42.828Z,1019.49
2018-12-12T13:37:42.808Z,1019.47
2018-12-12T13:38:42.801Z,1019.51
2018-12-12T13:39:42.791Z,1019.46
2018-12-12T13:40:42.797Z,1019.47
2018-12-12T13:41:42.773Z,1019.50
2018-12-12T13:42:42.755Z,1019.51
2018-12-12T13:43:42.743Z,1019.47
2018-12-12T13:44:42.805Z,1019.45
2018-12-12T13:45:42.741Z,1019.43
2018-12-12T13:46:42.873Z,1019.39
2018-12-12T13:47:42.722Z,1019.42
2018-12-12T13:48:42.692Z,1019.38
2018-12-12T13:49:42.683Z,1019.37
2018-12-12T13:50:42.705Z,1019.39
2018-12-12T13:51:42.670Z,1019.36
2018-12-12T13:52:42.655Z,1019.41
2018-12-12T13:53:42.649Z,1019.33
2018-12-12T13:54:42.728Z,1019.32
2018-12-12T13:55:42.640Z,1019.33
2018-12-12T13:56:42.748Z,1019.35
2018-12-12T13:57:42.629Z,1019.34
2018-12-12T13:58:42.631Z,1019.32
2018-12-12T13:59:42.633Z,1019.28
2018-12-12T14:00:42.588Z,1019.31
2018-12-12T14:01:42.569Z,1019.32
2018-12-12T14:02:42.562Z,1019.29
2018-12-12T14:03:42.555Z,1019.28
2018-12-12T14:04:42.532Z,1019.30
2018-12-12T14:05:42.540Z,1019.29
2018-12-12T14:06:42.511Z,1019.26
2018-12-12T14:07:42.499Z,1019.31
2018-12-12T14:08:42.499Z,1019.28
2018-12-12T14:09:42.489Z,1019.30
2018-12-12T14:10:42.495Z,1019.31
2018-12-12T14:11:42.457Z,1019.32
2018-12-12T14:12:42.448Z,1019.29
2018-12-12T14:13:42.441Z,1019.25
2018-12-12T14:14:42.431Z,1019.26
2018-12-12T14:15:42.434Z,1019.27
2018-12-12T14:16:42.409Z,1019.24
2018-12-12T14:17:42.407Z,1019.29
2018-12-12T14:18:42.386Z,1019.27
2018-12-12T14:19:42.373Z,1019.25
2018-12-12T14:20:42.381Z,1019.26
2018-12-12T14:21:42.626Z,1019.22
2018-12-12T14:22:42.366Z,1019.25
2018-12-12T14:23:42.332Z,1019.26
2018-12-12T14:24:42.322Z,1019.24
2018-12-12T14:25:42.343Z,1019.27
2018-12-12T14:26:42.307Z,1019.27
2018-12-12T14:27:42.299Z,1019.23
2018-12-12T14:28:42.310Z,1019.23
2018-12-12T14:29:42.274Z,1019.19
2018-12-12T14:30:42.452Z,1019.22
2018-12-12T14:31:42.251Z,1019.23
2018-12-12T14:32:42.248Z,1019.20
2018-12-12T14:33:42.241Z,1019.22
2018-12-12T14:34:42.221Z,1019.17
2018-12-12T14:35:42.226Z,1019.17
2018-12-12T14:36:42.207Z,1019.18
2018-12-12T14:37:42.189Z,1019.22
2018-12-12T14:38:42.179Z,1019.15
2018-12-12T14:39:42.170Z,1019.13
2018-12-12T14:40:42.176Z,1019.18
2018-12-12T14:41:42.144Z,1019.16
2018-12-12T14:42:42.135Z,1019.16
2018-12-12T14:43:42.128Z,1019.14
2018-12-12T14:44:42.128Z,1019.12
2018-12-12T14:45:42.137Z,1019.17
2018-12-12T14:46:42.094Z,1019.21
2018-12-12T14:47:42.086Z,1019.14
2018-12-12T14:48:42.091Z,1019.15
2018-12-12T14:49:42.064Z,1019.20
2018-12-12T14:50:42.073Z,1019.23
2018-12-12T14:51:42.045Z,1019.17
2018-12-12T14:52:42.038Z,1019.23
2018-12-12T14:53:42.031Z,1019.23
2018-12-12T14:54:42.015Z,1019.25
2018-12-12T14:55:42.063Z,1019.29
2018-12-12T14:56:41.994Z,1019.29
2018-12-12T14:57:41.982Z,1019.33
2018-12-12T14:58:41.973Z,1019.24
2018-12-12T14:59:42.019Z,1019.31
2018-12-12T15:00:41.970Z,1019.27
2018-12-12T15:01:41.945Z,1019.29
2018-12-12T15:02:41.931Z,1019.26
2018-12-12T15:03:41.940Z,1019.27
2018-12-12T15:04:41.918Z,1019.26
2018-12-12T15:05:41.919Z,1019.28
2018-12-12T15:06:41.891Z,1019.26
2018-12-12T15:07:41.889Z,1019.24
2018-12-12T15:08:41.870Z,1019.25
2018-12-12T15:09:41.866Z,1019.25
2018-12-12T15:10:41.868Z,1019.22
2018-12-12T15:11:41.840Z,1019.26
2018-12-12T15:12:41.845Z,1019.22
2018-12-12T15:13:41.818Z,1019.25
2018-12-12T15:14:41.807Z,1019.27
2018-12-12T15:15:41.821Z,1019.21
2018-12-12T15:16:41.789Z,1019.31
2018-12-12T15:17:41.776Z,1019.26
2018-12-12T15:18:41.784Z,1019.25
2018-12-12T15:19:41.757Z,1019.18
2018-12-12T15:20:41.775Z,1019.13
2018-12-12T15:21:41.734Z,1019.16
2018-12-12T15:22:41.729Z,1019.15
2018-12-12T15:23:41.713Z,1019.15
2018-12-12T15:24:41.707Z,1019.14
2018-12-12T15:25:41.713Z,1019.12
2018-12-12T15:26:41.682Z,1019.15
2018-12-12T15:27:41.671Z,1019.11
2018-12-12T15:28:41.665Z,1019.13
2018-12-12T15:29:41.659Z,1019.15
2018-12-12T15:30:41.640Z,1019.17
2018-12-12T15:31:41.659Z,1019.20
2018-12-12T15:32:41.622Z,1019.17
2018-12-12T15:33:41.608Z,1019.28
2018-12-12T15:34:42.461Z,1019.29
2018-12-12T15:35:41.595Z,1019.27
2018-12-12T15:36:41.604Z,1019.27
2018-12-12T15:37:41.570Z,1019.28
2018-12-12T15:38:41.560Z,1019.29
2018-12-12T15:39:41.604Z,1019.32
2018-12-12T15:40:41.535Z,1019.31
2018-12-12T15:41:41.564Z,1019.30
2018-12-12T15:42:41.523Z,1019.34
2018-12-12T15:43:41.511Z,1019.33
2018-12-12T15:44:41.495Z,1019.37
2018-12-12T15:45:41.485Z,1019.35
2018-12-12T15:46:41.492Z,1019.35
2018-12-12T15:47:41.463Z,1019.35
2018-12-12T15:48:41.455Z,1019.30
2018-12-12T15:49:41.446Z,1019.35
2018-12-12T15:50:41.432Z,1019.32
2018-12-12T15:51:41.442Z,1019.36
2018-12-12T15:52:41.411Z,1019.35
2018-12-12T15:53:41.400Z,1019.39
2018-12-12T15:54:41.392Z,1019.36
2018-12-12T15:55:41.389Z,1019.39
2018-12-12T15:56:41.388Z,1019.34
2018-12-12T15:57:41.357Z,1019.40
2018-12-12T15:58:41.359Z,1019.42
2018-12-12T15:59:41.368Z,1019.44
2018-12-12T16:00:41.330Z,1019.47
2018-12-12T16:01:41.346Z,1019.45
2018-12-12T16:02:41.306Z,1019.50
2018-12-12T16:03:41.297Z,1019.50
2018-12-12T16:04:41.288Z,1019.46
2018-12-12T16:05:41.301Z,1019.52
2018-12-12T16:06:41.287Z,1019.46
2018-12-12T16:07:41.270Z,1019.50
2018-12-12T16:08:41.249Z,1019.48
2018-12-12T16:09:41.247Z,1019.41
2018-12-12T16:10:41.233Z,1019.40
2018-12-12T16:11:41.235Z,1019.40
2018-12-12T16:12:41.201Z,1019.38
2018-12-12T16:13:41.191Z,1019.41
2018-12-12T16:14:41.189Z,1019.44
2018-12-12T16:15:41.176Z,1019.43
2018-12-12T16:16:41.179Z,1019.41
2018-12-12T16:17:41.150Z,1019.45
2018-12-12T16:18:41.152Z,1019.45
2018-12-12T16:19:41.129Z,1019.47
2018-12-12T16:20:41.175Z,1019.48
2018-12-12T16:21:41.128Z,1019.49
2018-12-12T16:22:41.103Z,1019.44
2018-12-12T16:23:41.086Z,1019.46
2018-12-12T16:24:41.098Z,1019.47
2018-12-12T16:25:41.070Z,1019.48
2018-12-12T16:26:41.079Z,1019.49
2018-12-12T16:27:41.045Z,1019.48
2018-12-12T16:28:41.032Z,1019.49
2018-12-12T16:29:41.026Z,1019.48
2018-12-12T16:30:41.022Z,1019.47
2018-12-12T16:31:41.025Z,1019.44
2018-12-12T16:32:40.992Z,1019.44
2018-12-12T16:33:40.979Z,1019.46
2018-12-12T16:34:40.969Z,1019.46
2018-12-12T16:35:40.961Z,1019.42
2018-12-12T16:36:40.970Z,1019.47
2018-12-12T16:37:40.966Z,1019.50
2018-12-12T16:38:40.929Z,1019.49
2018-12-12T16:39:40.924Z,1019.48
2018-12-12T16:40:40.911Z,1019.45
2018-12-12T16:41:40.917Z,1019.45
2018-12-12T16:42:40.895Z,1019.52
2018-12-12T16:43:40.874Z,1019.52
2018-12-12T16:44:40.866Z,1019.47
2018-12-12T16:45:40.861Z,1019.45
2018-12-12T16:46:40.916Z,1019.45
2018-12-12T16:47:40.835Z,1019.48
2018-12-12T16:48:40.832Z,1019.50
2018-12-12T16:49:40.810Z,1019.45
2018-12-12T16:50:40.802Z,1019.47
2018-12-12T16:51:40.815Z,1019.44
2018-12-12T16:52:40.780Z,1019.46
2018-12-12T16:53:40.973Z,1019.50
2018-12-12T16:54:40.780Z,1019.51
2018-12-12T16:55:40.752Z,1019.46
2018-12-12T16:56:40.757Z,1019.45
2018-12-12T16:57:40.731Z,1019.52
2018-12-12T16:58:40.719Z,1019.47
2018-12-12T16:59:40.726Z,1019.48
2018-12-12T17:00:40.709Z,1019.47
2018-12-12T17:01:40.719Z,1019.50
2018-12-12T17:02:40.673Z,1019.51
2018-12-12T17:03:40.668Z,1019.55
2018-12-12T17:04:40.656Z,1019.50
2018-12-12T17:05:40.649Z,1019.58
2018-12-12T17:06:40.651Z,1019.56
2018-12-12T17:07:40.622Z,1019.57
2018-12-12T17:08:40.620Z,1019.58
2018-12-12T17:09:40.603Z,1019.61
2018-12-12T17:10:40.590Z,1019.59
2018-12-12T17:11:40.611Z,1019.59
2018-12-12T17:12:40.573Z,1019.61
2018-12-12T17:13:40.558Z,1019.60
2018-12-12T17:14:40.560Z,1019.62
2018-12-12T17:15:40.588Z,1019.61
2018-12-12T17:16:40.554Z,1019.64
2018-12-12T17:17:40.530Z,1019.63
2018-12-12T17:18:40.544Z,1019.64
2018-12-12T17:19:40.508Z,1019.67
2018-12-12T17:20:40.490Z,1019.64
2018-12-12T17:21:40.475Z,1019.67
2018-12-12T17:22:40.481Z,1019.63
2018-12-12T17:23:40.463Z,1019.67
2018-12-12T17:24:40.446Z,1019.66
2018-12-12T17:25:40.432Z,1019.70
2018-12-12T17:26:40.435Z,1019.66
2018-12-12T17:27:40.454Z,1019.64
2018-12-12T17:28:40.405Z,1019.67
2018-12-12T17:29:40.407Z,1019.69
2018-12-12T17:30:40.382Z,1019.67
2018-12-12T17:31:40.382Z,1019.67
2018-12-12T17:32:40.450Z,1019.68
2018-12-12T17:33:40.357Z,1019.68
2018-12-12T17:34:40.336Z,1019.62
2018-12-12T17:35:40.326Z,1019.65
2018-12-12T17:36:40.323Z,1019.69
2018-12-12T17:37:40.328Z,1019.66
2018-12-12T17:38:40.307Z,1019.70
2018-12-12T17:39:40.287Z,1019.69
2018-12-12T17:40:40.275Z,1019.71
2018-12-12T17:41:40.268Z,1019.69
2018-12-12T17:42:40.290Z,1019.73
2018-12-12T17:43:40.256Z,1019.70
2018-12-12T17:44:40.234Z,1019.75
2018-12-12T17:45:40.277Z,1019.71
2018-12-12T17:46:40.218Z,1019.70
2018-12-12T17:47:40.219Z,1019.60
2018-12-12T17:48:40.207Z,1019.66
2018-12-12T17:49:40.185Z,1019.64
2018-12-12T17:50:40.172Z,1019.66
2018-12-12T17:51:40.164Z,1019.68
2018-12-12T17:52:40.166Z,1019.66
2018-12-12T17:53:40.137Z,1019.64
2018-12-12T17:54:40.141Z,1019.63
2018-12-12T17:55:40.122Z,1019.59
2018-12-12T17:56:40.106Z,1019.61
2018-12-12T17:57:40.114Z,1019.59
2018-12-12T17:58:40.086Z,1019.62
2018-12-12T17:59:40.075Z,1019.58
2018-12-12T18:00:40.071Z,1019.61
2018-12-12T18:01:40.057Z,1019.58
2018-12-12T18:02:40.065Z,1019.57
2018-12-12T18:03:40.036Z,1019.59
2018-12-12T18:04:40.023Z,1019.54
2018-12-12T18:05:40.050Z,1019.55
2018-12-12T18:06:40.002Z,1019.58
2018-12-12T18:07:40.029Z,1019.50
2018-12-12T18:08:39.982Z,1019.53
2018-12-12T18:09:39.999Z,1019.48
2018-12-12T18:10:39.965Z,1019.55
2018-12-12T18:11:39.961Z,1019.53
2018-12-12T18:12:39.956Z,1019.53
2018-12-12T18:13:39.933Z,1019.56
2018-12-12T18:14:39.919Z,1019.51
2018-12-12T18:15:39.908Z,1019.54
2018-12-12T18:16:39.972Z,1019.58
2018-12-12T18:17:39.908Z,1019.56
2018-12-12T18:18:39.876Z,1019.51
2018-12-12T18:19:39.870Z,1019.54
2018-12-12T18:20:39.861Z,1019.54
2018-12-12T18:21:39.843Z,1019.51
2018-12-12T18:22:39.853Z,1019.52
2018-12-12T18:23:39.830Z,1019.52
2018-12-12T18:24:39.816Z,1019.50
2018-12-12T18:25:39.819Z,1019.47
2018-12-12T18:26:39.791Z,1019.48
2018-12-12T18:27:39.813Z,1019.46
2018-12-12T18:28:39.771Z,1019.47
2018-12-12T18:29:39.764Z,1019.47
2018-12-12T18:30:39.755Z,1019.46
2018-12-12T18:31:39.738Z,1019.43
2018-12-12T18:32:39.754Z,1019.46
2018-12-12T18:33:39.715Z,1019.46